Time;durP1;ratioP1;P1;durP2;ratioP2;P2;SDS_P1;SDS_P2;PMS_P1;PMS_P2;Temp;Humidity;BMP_temperature;BMP_pressure;BME280_temperature;BME280_humidity;BME280_pressure;Samples;Min_cycle;Max_cycle;Signal;HPM_P1;HPM_P2
2022/09/30 00:01:50;;;;;;;10.23;6.93;;;8.40;99.90;;;7.37;100.00;96450.78;5069834;28;20415;-74
2022/09/30 00:04:19;;;;;;;15.57;7.55;;;8.50;99.90;;;7.39;100.00;96445.25;5069583;28;20935;-74
2022/09/30 00:06:45;;;;;;;11.90;7.32;;;8.50;99.90;;;7.41;100.00;96440.53;5069956;28;20465;-75
2022/09/30 00:09:11;;;;;;;11.35;7.38;;;8.50;99.90;;;7.44;100.00;96445.31;5069570;28;20920;-73
2022/09/30 00:11:39;;;;;;;13.25;8.43;;;8.50;99.90;;;7.45;100.00;96449.50;5069722;28;20422;-73
2022/09/30 00:14:07;;;;;;;13.63;7.28;;;8.50;99.90;;;7.45;100.00;96446.88;5068832;28;20751;-74
2022/09/30 00:16:36;;;;;;;13.57;7.60;;;8.50;99.90;;;7.43;100.00;96451.63;5062191;28;20905;-75
2022/09/30 00:19:05;;;;;;;12.13;7.40;;;8.50;99.90;;;7.42;100.00;96454.50;5069680;28;20400;-75
2022/09/30 00:21:32;;;;;;;11.05;6.88;;;8.50;99.90;;;7.44;100.00;96449.78;5069798;28;20403;-74
2022/09/30 00:23:59;;;;;;;10.07;6.55;;;8.50;99.90;;;7.45;100.00;96459.25;5069448;28;20496;-75
2022/09/30 00:26:25;;;;;;;12.17;7.07;;;8.50;99.90;;;7.45;100.00;96448.72;5069781;28;20420;-75
2022/09/30 00:28:54;;;;;;;12.20;6.65;;;8.50;99.90;;;7.48;100.00;96448.22;5069669;28;20758;-75
2022/09/30 00:31:24;;;;;;;9.37;7.07;;;8.60;99.90;;;7.51;100.00;96463.53;5069352;28;20494;-75
2022/09/30 00:34:05;;;;;;;11.25;6.75;;;8.60;99.90;;;7.52;100.00;96462.47;5069243;28;20430;-75
2022/09/30 00:36:32;;;;;;;12.48;6.93;;;8.60;99.90;;;7.54;100.00;96463.00;5069038;28;20461;-75
2022/09/30 00:38:58;;;;;;;12.02;6.80;;;8.60;99.90;;;7.55;100.00;96462.75;5069088;28;20489;-75
2022/09/30 00:41:24;;;;;;;14.23;7.63;;;8.60;99.90;;;7.55;100.00;96457.47;5069542;28;20446;-75
2022/09/30 00:43:52;;;;;;;10.93;6.95;;;8.60;99.90;;;7.55;100.00;96462.75;5068891;28;20915;-75
2022/09/30 00:46:27;;;;;;;13.53;7.13;;;8.60;99.90;;;7.57;100.00;96459.88;5069666;28;20574;-75
2022/09/30 00:48:55;;;;;;;14.18;7.10;;;8.60;99.90;;;7.59;100.00;96463.06;5069537;28;20408;-75
2022/09/30 00:51:29;;;;;;;10.75;7.35;;;8.70;99.90;;;7.61;100.00;96464.38;5069786;28;20454;-74
2022/09/30 00:54:00;;;;;;;10.30;7.38;;;8.70;99.90;;;7.64;100.00;96468.34;5068937;28;20451;-74
2022/09/30 00:56:32;;;;;;;12.88;6.88;;;8.70;99.90;;;7.65;100.00;96462.81;5069375;28;20797;-75
2022/09/30 00:59:05;;;;;;;12.63;6.90;;;8.70;99.90;;;7.68;100.00;96474.66;5069492;28;20403;-75
2022/09/30 01:01:34;;;;;;;11.15;6.75;;;8.70;99.90;;;7.70;100.00;96469.94;5069463;28;20893;-75
2022/09/30 01:04:05;;;;;;;11.18;7.30;;;8.80;99.90;;;7.70;100.00;96472.59;5068606;28;20828;-75
2022/09/30 01:06:30;;;;;;;12.33;7.30;;;8.80;99.90;;;7.71;100.00;96474.16;5069529;28;20904;-74
2022/09/30 01:08:57;;;;;;;10.98;7.05;;;8.80;99.90;;;7.71;100.00;96466.28;5069038;28;20411;-75
2022/09/30 01:11:23;;;;;;;10.82;6.88;;;8.80;99.90;;;7.71;100.00;96467.06;5069568;28;20447;-75
2022/09/30 01:13:54;;;;;;;13.52;7.68;;;8.80;99.90;;;7.71;100.00;96464.44;5068765;28;20497;-75
2022/09/30 01:16:46;;;;;;;10.95;7.10;;;8.80;99.90;;;7.71;100.00;96459.16;5069280;28;20477;-74
2022/09/30 01:19:36;;;;;;;10.70;6.65;;;8.80;99.90;;;7.72;100.00;96476.56;5069107;28;20904;-75
2022/09/30 01:22:32;;;;;;;12.20;6.57;;;8.80;99.90;;;7.69;100.00;96477.06;5069515;28;20431;-75
2022/09/30 01:25:44;;;;;;;11.52;7.07;;;8.80;99.90;;;7.71;100.00;96476.81;5068771;28;20408;-74
2022/09/30 01:28:40;;;;;;;11.35;7.28;;;8.80;99.90;;;7.69;100.00;96466.53;5070313;28;20407;-75
2022/09/30 01:31:21;;;;;;;15.05;7.63;;;8.80;99.90;;;7.68;100.00;96474.66;5072742;28;20498;-75
2022/09/30 01:33:54;;;;;;;12.52;7.50;;;8.70;99.90;;;7.67;100.00;96473.88;5072366;28;20408;-75
2022/09/30 01:36:40;;;;;;;10.52;6.88;;;8.80;99.90;;;7.69;100.00;96471.00;5072790;28;20411;-75
2022/09/30 01:39:20;;;;;;;11.15;7.32;;;8.80;99.90;;;7.70;100.00;96469.94;5072421;28;20506;-75
2022/09/30 01:41:55;;;;;;;12.70;7.30;;;8.80;99.90;;;7.70;100.00;96467.31;5058403;28;20408;-74
2022/09/30 01:44:34;;;;;;;13.15;7.53;;;8.80;99.90;;;7.70;100.00;96468.09;5072224;28;20427;-74
2022/09/30 01:47:10;;;;;;;11.60;7.60;;;8.80;99.90;;;7.70;100.00;96468.09;5072268;28;20399;-75
2022/09/30 01:49:44;;;;;;;13.27;7.47;;;8.80;99.90;;;7.71;100.00;96466.28;5066707;28;20411;-75
2022/09/30 01:52:15;;;;;;;13.90;7.32;;;8.80;99.90;;;7.73;100.00;96477.34;5072311;28;20412;-75
2022/09/30 01:54:47;;;;;;;12.80;7.82;;;8.80;99.90;;;7.72;100.00;96473.13;5072163;28;20414;-75
2022/09/30 01:57:22;;;;;;;13.20;7.72;;;8.80;99.90;;;7.70;100.00;96473.38;5054401;28;20407;-74
2022/09/30 01:59:55;;;;;;;11.27;7.00;;;8.80;99.90;;;7.70;100.00;96477.84;5072015;28;20399;-75
2022/09/30 02:02:26;;;;;;;13.63;7.53;;;8.70;99.90;;;7.71;100.00;96477.59;5072405;28;20408;-74
2022/09/30 02:04:58;;;;;;;13.13;7.72;;;8.80;99.90;;;7.70;100.00;96483.91;5071714;28;20480;-75
2022/09/30 02:07:32;;;;;;;15.02;7.82;;;8.80;99.90;;;7.68;100.00;96493.09;5072347;28;20411;-75
2022/09/30 02:10:02;;;;;;;13.32;7.82;;;8.70;99.90;;;7.66;100.00;96500.50;5071832;28;20889;-74
2022/09/30 02:12:36;;;;;;;15.53;7.97;;;8.70;99.90;;;7.65;100.00;96502.31;5053934;28;20961;-75
2022/09/30 02:15:08;;;;;;;15.52;8.00;;;8.70;99.90;;;7.65;100.00;96506.81;5071505;28;21098;-74
2022/09/30 02:17:42;;;;;;;11.90;7.47;;;8.70;99.90;;;7.66;100.00;96497.84;5071981;28;20438;-75
2022/09/30 02:20:12;;;;;;;12.63;7.70;;;8.70;99.90;;;7.67;100.00;96496.78;5071498;28;20422;-74
2022/09/30 02:22:44;;;;;;;14.73;8.20;;;8.70;99.90;;;7.65;100.00;96504.16;5070465;28;20403;-75
2022/09/30 02:25:17;;;;;;;12.20;8.00;;;8.70;99.90;;;7.62;100.00;96504.66;5071597;28;20485;-75
2022/09/30 02:27:50;;;;;;;17.63;9.55;;;8.70;99.90;;;7.58;100.00;96507.03;5071793;28;20464;-75
2022/09/30 02:30:17;;;;;;;15.30;9.20;;;8.70;99.90;;;7.57;100.00;96507.28;5070590;28;20447;-75
2022/09/30 02:32:49;;;;;;;13.57;8.55;;;8.70;99.90;;;7.54;100.00;96521.72;5071309;28;20407;-74
2022/09/30 02:35:22;;;;;;;20.92;9.23;;;8.70;99.90;;;7.50;100.00;96515.38;5071339;28;20411;-74
2022/09/30 02:37:52;;;;;;;14.13;8.82;;;8.60;99.90;;;7.46;100.00;96519.56;5071546;28;20486;-74
2022/09/30 02:40:25;;;;;;;17.65;9.32;;;8.60;99.90;;;7.41;100.00;96521.38;5070417;28;20423;-75
2022/09/30 02:42:51;;;;;;;16.35;9.23;;;8.50;99.90;;;7.36;100.00;96528.19;5070899;28;20418;-75
2022/09/30 02:45:21;;;;;;;15.27;8.85;;;8.50;99.90;;;7.33;100.00;96531.31;5071190;28;20411;-75
2022/09/30 02:48:03;;;;;;;17.80;9.05;;;8.40;99.90;;;7.29;100.00;96526.81;5071350;28;20407;-75
2022/09/30 02:50:35;;;;;;;23.38;10.30;;;8.40;99.90;;;7.27;100.00;96528.91;5070973;28;20900;-75
2022/09/30 02:53:16;;;;;;;17.08;10.38;;;8.40;99.90;;;7.23;100.00;96523.31;5070926;28;20400;-75
2022/09/30 02:56:09;;;;;;;18.77;10.13;;;8.30;99.90;;;7.22;100.00;96527.00;5071234;28;20777;-75
2022/09/30 02:58:38;;;;;;;20.58;11.15;;;8.30;99.90;;;7.24;100.00;96532.03;5071074;28;20900;-75
2022/09/30 03:01:06;;;;;;;19.45;11.15;;;8.30;99.90;;;7.23;100.00;96531.22;5071283;28;20429;-75
2022/09/30 03:03:40;;;;;;;25.42;12.27;;;8.30;99.90;;;7.22;100.00;96542.78;5052132;28;20450;-75
2022/09/30 03:06:06;;;;;;;20.60;11.25;;;8.30;99.90;;;7.21;100.00;96546.50;5070972;28;20411;-74
2022/09/30 03:08:32;;;;;;;18.33;11.23;;;8.30;99.90;;;7.22;100.00;96547.25;5070746;28;20439;-74
2022/09/30 03:10:58;;;;;;;19.35;11.13;;;8.30;99.90;;;7.23;100.00;96548.84;5071050;28;20419;-74
2022/09/30 03:14:10;;;;;;;19.00;11.20;;;8.30;99.90;;;7.23;100.00;96547.00;5070312;28;20418;-74
2022/09/30 03:16:53;;;;;;;24.55;12.45;;;8.40;99.90;;;7.21;100.00;96543.84;5065712;28;20418;-74
2022/09/30 03:19:39;;;;;;;20.40;12.45;;;8.30;99.90;;;7.18;100.00;96546.97;5070443;28;20439;-74
2022/09/30 03:22:33;;;;;;;24.10;12.48;;;8.30;99.90;;;7.18;100.00;96554.06;5070757;28;20403;-75
2022/09/30 03:25:20;;;;;;;17.35;11.27;;;8.30;99.90;;;7.19;100.00;96553.84;5052518;28;20407;-75
2022/09/30 03:27:59;;;;;;;19.98;11.68;;;8.30;99.90;;;7.22;100.00;96557.78;5070487;28;20887;-75
2022/09/30 03:30:26;;;;;;;22.73;12.27;;;8.30;99.90;;;7.24;100.00;96553.06;5070465;28;20411;-74
2022/09/30 03:33:06;;;;;;;21.15;12.43;;;8.30;99.90;;;7.26;100.00;96557.06;5052042;28;20418;-74
2022/09/30 03:35:43;;;;;;;22.98;12.65;;;8.40;99.90;;;7.29;100.00;96555.78;5070107;28;20400;-75
2022/09/30 03:38:15;;;;;;;19.58;11.07;;;8.40;99.90;;;7.31;100.00;96556.28;5070087;28;20450;-75
2022/09/30 03:40:52;;;;;;;18.90;11.37;;;8.40;99.90;;;7.32;100.00;96561.31;5067287;28;20968;-75
2022/09/30 03:43:26;;;;;;;18.42;11.23;;;8.40;99.90;;;7.33;100.00;96565.53;5070055;28;20555;-75
2022/09/30 03:46:00;;;;;;;18.67;11.60;;;8.40;99.90;;;7.33;100.00;96562.09;5069790;28;20407;-75
2022/09/30 03:48:28;;;;;;;18.85;11.93;;;8.40;99.90;;;7.36;100.00;96565.06;5070294;28;20495;-75
2022/09/30 03:50:58;;;;;;;22.85;12.32;;;8.40;99.90;;;7.37;100.00;96561.34;5069496;28;20433;-75
2022/09/30 03:53:27;;;;;;;33.17;16.10;;;8.50;99.90;;;7.35;100.00;96570.56;5069131;28;20562;-75
2022/09/30 03:55:53;;;;;;;28.05;15.77;;;8.40;99.90;;;7.34;100.00;96563.69;5069977;28;20410;-74
2022/09/30 03:58:24;;;;;;;25.15;14.82;;;8.40;99.90;;;7.34;100.00;96567.13;5069925;28;20414;-75
2022/09/30 04:00:52;;;;;;;26.07;15.50;;;8.40;99.90;;;7.37;100.00;96563.19;5069005;28;20507;-74
2022/09/30 04:03:20;;;;;;;30.48;16.38;;;8.50;99.90;;;7.38;100.00;96568.22;5069303;28;20410;-75
2022/09/30 04:05:46;;;;;;;26.52;14.73;;;8.50;99.90;;;7.40;100.00;96573.22;5069506;28;20897;-75
2022/09/30 04:08:14;;;;;;;29.30;15.85;;;8.50;99.90;;;7.37;100.00;96579.78;5068729;28;20400;-74
2022/09/30 04:10:40;;;;;;;26.63;15.00;;;8.50;99.90;;;7.38;100.00;96586.63;5068844;28;20416;-73
2022/09/30 04:13:06;;;;;;;25.95;15.02;;;8.50;99.90;;;7.38;100.00;96586.63;5068688;28;20419;-73
2022/09/30 04:15:32;;;;;;;29.23;15.45;;;8.40;99.90;;;7.40;100.00;96594.28;5095902;22;20440;-82
2022/09/30 04:17:58;;;;;;;29.77;16.38;;;8.50;99.90;;;7.37;100.00;96595.56;5080011;28;20410;-78
2022/09/30 04:20:24;;;;;;;29.63;15.73;;;8.50;99.90;;;7.36;100.00;96595.84;5089319;28;20759;-76
2022/09/30 04:22:50;;;;;;;31.25;15.15;;;8.40;99.90;;;7.35;100.00;96602.94;5087214;28;20406;-75
2022/09/30 04:25:17;;;;;;;24.30;14.55;;;8.40;99.90;;;7.36;100.00;96609.81;5086462;28;20983;-78
2022/09/30 04:27:43;;;;;;;27.17;15.20;;;8.40;99.90;;;7.38;100.00;96601.63;5083931;28;20421;-77
2022/09/30 04:30:10;;;;;;;26.37;15.30;;;8.50;99.90;;;7.38;100.00;96609.53;5090346;28;20471;-75
2022/09/30 04:32:36;;;;;;;26.52;15.25;;;8.50;99.90;;;7.39;100.00;96597.97;5090684;28;20416;-81
2022/09/30 04:35:02;;;;;;;27.75;15.27;;;8.50;99.90;;;7.38;100.00;96594.53;5090155;28;20402;-84
2022/09/30 04:37:28;;;;;;;25.73;15.13;;;8.50;99.90;;;7.38;100.00;96605.06;5090392;28;20788;-84
2022/09/30 04:39:54;;;;;;;25.67;15.52;;;8.50;99.90;;;7.35;100.00;96597.69;5090383;28;20489;-83
2022/09/30 04:42:21;;;;;;;24.60;14.93;;;8.40;99.90;;;7.34;100.00;96601.34;5090237;28;20410;-83
2022/09/30 04:44:47;;;;;;;25.88;14.85;;;8.40;99.90;;;7.32;100.00;96600.00;5089788;28;20402;-82
2022/09/30 04:47:13;;;;;;;30.13;15.87;;;8.40;99.90;;;7.31;100.00;96607.09;5090200;28;20501;-84
2022/09/30 04:49:39;;;;;;;28.38;14.88;;;8.40;99.90;;;7.29;100.00;96606.56;5090178;28;20394;-84
2022/09/30 04:52:05;;;;;;;28.60;15.07;;;8.40;99.90;;;7.30;100.00;96609.97;5090036;28;20470;-84
2022/09/30 04:54:31;;;;;;;29.52;16.77;;;8.40;99.90;;;7.25;100.00;96612.56;5089657;28;20401;-83
2022/09/30 04:56:57;;;;;;;33.67;16.52;;;8.40;99.90;;;7.19;100.00;96613.56;5091199;28;20719;-82
2022/09/30 04:59:24;;;;;;;28.47;16.40;;;8.30;99.90;;;7.13;100.00;96620.63;5090286;28;20413;-82
2022/09/30 05:01:50;;;;;;;30.73;16.52;;;8.20;99.90;;;7.07;100.00;96620.81;5090744;28;20809;-83
2022/09/30 05:04:16;;;;;;;27.38;15.80;;;8.20;99.90;;;7.03;100.00;96628.41;5092908;28;20402;-83
2022/09/30 05:06:42;;;;;;;30.58;17.23;;;8.20;99.90;;;6.99;100.00;96633.34;5093895;28;20903;-83
2022/09/30 05:09:08;;;;;;;29.00;16.83;;;8.10;99.90;;;6.96;100.00;96636.50;5093795;28;20408;-83
2022/09/30 05:11:36;;;;;;;31.00;17.10;;;8.10;99.90;;;6.92;100.00;96645.91;5093701;28;20414;-83
2022/09/30 05:14:07;;;;;;;32.10;17.53;;;8.10;99.90;;;6.89;100.00;96642.97;5093054;28;20406;-82
2022/09/30 05:16:34;;;;;;;33.95;19.25;;;8.00;99.90;;;6.85;100.00;96641.88;5093809;28;20905;-82
2022/09/30 05:19:00;;;;;;;34.72;20.13;;;8.00;99.90;;;6.81;100.00;96646.84;5094005;28;20979;-82
2022/09/30 05:21:27;;;;;;;38.90;20.30;;;8.00;99.90;;;6.78;100.00;96649.16;5094378;28;20799;-81
2022/09/30 05:23:53;;;;;;;35.03;19.43;;;7.90;99.90;;;6.72;100.00;96644.88;5093337;28;20414;-80
2022/09/30 05:26:19;;;;;;;34.50;19.60;;;7.90;99.90;;;6.66;100.00;96646.66;5093560;28;20415;-77
2022/09/30 05:28:45;;;;;;;32.35;18.23;;;7.80;99.90;;;6.62;100.00;96650.78;5091747;28;20509;-79
2022/09/30 05:31:12;;;;;;;30.02;18.48;;;7.80;99.90;;;6.60;100.00;96655.50;5086886;28;20422;-78
2022/09/30 05:33:40;;;;;;;34.70;18.88;;;7.70;99.90;;;6.59;100.00;96653.91;5092756;28;20402;-79
2022/09/30 05:36:08;;;;;;;34.67;19.20;;;7.70;99.90;;;6.58;100.00;96657.59;5093303;28;20455;-79
2022/09/30 05:38:34;;;;;;;36.28;19.40;;;7.70;99.90;;;6.56;100.00;96654.41;5093311;28;20407;-79
2022/09/30 05:41:06;;;;;;;33.40;19.10;;;7.70;99.90;;;6.53;100.00;96658.31;5093067;28;20447;-79
2022/09/30 05:43:32;;;;;;;32.35;18.77;;;7.70;99.90;;;6.54;100.00;96661.75;5092766;28;20454;-79
2022/09/30 05:45:58;;;;;;;32.83;17.90;;;7.70;99.90;;;6.52;100.00;96663.81;5093351;28;20535;-79
2022/09/30 05:48:26;;;;;;;32.85;18.67;;;7.60;99.90;;;6.47;100.00;96661.09;5092986;28;20425;-79
2022/09/30 05:50:55;;;;;;;32.70;19.40;;;7.60;99.90;;;6.46;100.00;96651.66;5092861;28;20429;-79
2022/09/30 05:53:21;;;;;;;34.17;19.55;;;7.60;99.90;;;6.47;100.00;96659.28;5092453;28;20405;-79
2022/09/30 05:55:47;;;;;;;29.80;17.50;;;7.60;99.90;;;6.48;100.00;96663.50;5090557;28;20402;-79
2022/09/30 05:58:13;;;;;;;31.58;18.45;;;7.60;99.90;;;6.50;100.00;96668.50;5083198;28;20423;-80
2022/09/30 06:00:41;;;;;;;33.60;18.90;;;7.60;99.90;;;6.52;100.00;96669.88;5082572;28;20901;-80
2022/09/30 06:03:07;;;;;;;36.22;19.75;;;7.70;99.90;;;6.55;100.00;96671.19;5082084;28;20933;-80
2022/09/30 06:05:33;;;;;;;31.88;17.52;;;7.70;99.90;;;6.56;100.00;96673.59;5082842;28;20416;-81
2022/09/30 06:08:01;;;;;;;28.90;18.67;;;7.70;99.90;;;6.61;100.00;96676.28;5067478;28;20528;-80
2022/09/30 06:10:27;;;;;;;31.38;17.17;;;7.70;99.90;;;6.68;100.00;96672.72;5088063;28;20422;-80
2022/09/30 06:12:53;;;;;;;31.55;18.55;;;7.80;99.90;;;6.74;100.00;96671.72;5074972;28;20399;-80
2022/09/30 06:15:18;;;;;;;28.27;17.23;;;7.80;99.90;;;6.82;100.00;96677.38;5088060;28;20407;-81
2022/09/30 06:17:45;;;;;;;28.75;17.38;;;7.90;99.90;;;6.90;100.00;96687.47;5079547;28;20835;-80
2022/09/30 06:20:11;;;;;;;28.27;17.15;;;8.00;99.90;;;7.00;100.00;96684.13;5080921;28;20457;-80
2022/09/30 06:22:37;;;;;;;29.42;17.52;;;8.10;99.90;;;7.08;100.00;96683.72;5086734;28;20793;-80
2022/09/30 06:25:06;;;;;;;30.17;17.27;;;8.10;99.90;;;7.17;100.00;96694.59;5074726;28;20535;-80
2022/09/30 06:27:33;;;;;;;24.42;15.45;;;8.20;99.90;;;7.25;100.00;96696.81;5067422;28;21010;-78
2022/09/30 06:29:59;;;;;;;25.30;15.02;;;8.30;99.90;;;7.35;100.00;96694.28;5081720;28;20487;-79
2022/09/30 06:32:25;;;;;;;33.85;16.42;;;8.40;99.90;;;7.46;100.00;96703.06;5071668;28;20479;-78
2022/09/30 06:34:54;;;;;;;27.35;15.68;;;8.50;99.90;;;7.56;100.00;96714.53;5087916;28;20875;-78
2022/09/30 06:37:21;;;;;;;28.23;14.27;;;8.60;99.90;;;7.68;100.00;96717.00;5076843;28;20394;-79
2022/09/30 06:39:47;;;;;;;21.30;14.15;;;8.70;99.90;;;7.79;100.00;96721.34;5083778;28;20496;-79
2022/09/30 06:42:15;;;;;;;24.67;14.13;;;8.80;99.90;;;7.90;100.00;96720.38;5084691;28;20394;-79
2022/09/30 06:44:41;;;;;;;21.80;12.95;;;8.90;99.90;;;8.02;100.00;96722.88;5075544;28;21118;-79
2022/09/30 06:47:07;;;;;;;22.48;13.40;;;9.00;99.90;;;8.11;100.00;96718.72;5088710;28;20439;-79
2022/09/30 06:49:33;;;;;;;21.92;12.60;;;9.10;99.90;;;8.22;100.00;96727.50;5078695;28;20419;-79
2022/09/30 06:52:00;;;;;;;19.53;12.30;;;9.20;99.90;;;8.32;100.00;96719.72;5088052;28;20942;-79
2022/09/30 06:54:29;;;;;;;21.05;12.82;;;9.30;99.90;;;8.37;100.00;96725.81;5079245;28;20930;-78
2022/09/30 06:56:58;;;;;;;22.40;12.68;;;9.40;99.90;;;8.42;100.00;96728.47;5076381;28;20780;-78
2022/09/30 06:59:26;;;;;;;21.80;12.63;;;9.40;99.90;;;8.49;100.00;96734.31;5084661;28;20401;-78
2022/09/30 07:01:52;;;;;;;19.55;12.55;;;9.50;99.90;;;8.52;100.00;96733.81;5091562;28;20386;-78
2022/09/30 07:04:18;;;;;;;26.17;13.27;;;9.50;99.90;;;8.54;100.00;96744.13;5082822;28;20438;-78
2022/09/30 07:06:44;;;;;;;20.17;12.23;;;9.50;99.90;;;8.54;100.00;96737.00;5086561;28;20492;-78
2022/09/30 07:09:12;;;;;;;23.33;13.77;;;9.60;99.90;;;8.53;100.00;96739.91;5089172;28;20410;-78
2022/09/30 07:11:38;;;;;;;20.30;12.77;;;9.50;99.90;;;8.56;100.00;96743.88;5079431;28;20418;-79
2022/09/30 07:14:05;;;;;;;25.17;13.68;;;9.50;99.90;;;8.56;100.00;96743.88;5081552;28;20411;-79
2022/09/30 07:16:33;;;;;;;26.60;13.68;;;9.60;99.90;;;8.58;100.00;96744.41;5073020;28;20425;-79
2022/09/30 07:19:00;;;;;;;22.88;14.30;;;9.60;99.90;;;8.62;100.00;96748.94;5091444;28;20402;-79
2022/09/30 07:21:27;;;;;;;27.92;14.20;;;9.60;99.90;;;8.68;100.00;96753.19;5091540;28;20397;-79
2022/09/30 07:23:53;;;;;;;27.50;15.43;;;9.70;99.90;;;8.73;100.00;96757.69;5090771;28;20463;-79
2022/09/30 07:26:22;;;;;;;26.25;15.23;;;9.70;99.90;;;8.75;100.00;96769.59;5082324;28;20681;-79
2022/09/30 07:28:50;;;;;;;26.95;15.98;;;9.70;99.90;;;8.77;100.00;96766.72;5090412;28;20394;-79
2022/09/30 07:31:18;;;;;;;26.40;16.40;;;9.70;99.90;;;8.78;100.00;96769.09;5091071;28;20840;-78
2022/09/30 07:33:46;;;;;;;25.35;15.38;;;9.70;99.90;;;8.83;100.00;96766.47;5085907;28;20418;-78
2022/09/30 07:36:17;;;;;;;28.50;16.70;;;9.80;99.90;;;8.80;100.00;96771.47;5061254;28;20405;-78
2022/09/30 07:38:45;;;;;;;29.08;16.60;;;9.80;99.90;;;8.81;100.00;96770.41;5091023;28;20798;-79
2022/09/30 07:41:15;;;;;;;26.08;15.45;;;9.80;99.90;;;8.80;100.00;96769.63;5091153;28;20397;-81
2022/09/30 07:43:44;;;;;;;25.20;15.50;;;9.80;99.90;;;8.83;100.00;96771.75;5090328;28;20406;-81
2022/09/30 07:46:13;;;;;;;26.60;15.32;;;9.80;99.90;;;8.86;100.00;96776.53;5090937;28;20902;-81
2022/09/30 07:48:43;;;;;;;25.42;16.30;;;9.80;99.90;;;8.88;100.00;96782.34;5091040;28;20752;-80
2022/09/30 07:51:13;;;;;;;35.95;18.17;;;9.80;99.90;;;8.91;100.00;96786.31;5090950;28;20496;-76
2022/09/30 07:53:41;;;;;;;26.30;15.93;;;9.90;99.90;;;8.95;100.00;96783.97;5090208;28;21120;-75
2022/09/30 07:56:08;;;;;;;26.70;16.77;;;9.90;99.90;;;8.98;100.00;96786.91;5090729;28;20817;-76
2022/09/30 07:58:35;;;;;;;28.65;17.77;;;9.90;99.90;;;9.03;100.00;96791.41;5090682;28;20412;-76
2022/09/30 08:01:01;;;;;;;26.25;16.33;;;10.00;99.90;;;9.09;100.00;96795.69;5090707;28;20394;-76
2022/09/30 08:03:27;;;;;;;27.90;16.40;;;10.00;99.90;;;9.16;100.00;96793.59;5071941;28;21000;-76
2022/09/30 08:05:53;;;;;;;26.03;16.43;;;10.10;99.90;;;9.22;100.00;96805.78;5072587;28;20410;-75
2022/09/30 08:08:21;;;;;;;25.80;16.60;;;10.10;99.90;;;9.26;100.00;96806.84;5090386;28;20413;-76
2022/09/30 08:10:46;;;;;;;23.83;15.70;;;10.20;99.90;;;9.31;100.00;96806.88;5090255;28;20410;-76
2022/09/30 08:13:12;;;;;;;28.50;16.95;;;10.20;99.90;;;9.34;100.00;96806.34;5089962;28;20792;-76
2022/09/30 08:15:39;;;;;;;26.30;16.33;;;10.30;99.90;;;9.37;100.00;96808.50;5090352;28;20406;-76
2022/09/30 08:18:04;;;;;;;24.30;16.57;;;10.30;99.90;;;9.42;100.00;96813.00;5090460;28;20900;-76
2022/09/30 08:20:30;;;;;;;28.65;17.30;;;10.40;99.90;;;9.44;100.00;96816.19;5090516;28;20396;-76
2022/09/30 08:22:57;;;;;;;25.15;16.58;;;10.40;99.90;;;9.48;100.00;96818.03;5089853;28;20489;-76
2022/09/30 08:25:26;;;;;;;25.05;16.60;;;10.40;99.90;;;9.52;100.00;96810.41;5090236;28;20402;-76
2022/09/30 08:27:53;;;;;;;26.65;16.90;;;10.50;99.90;;;9.57;100.00;96819.16;5090276;28;20398;-76
2022/09/30 08:30:19;;;;;;;28.17;17.53;;;10.50;99.90;;;9.61;100.00;96814.94;5090261;28;20412;-76
2022/09/30 08:32:45;;;;;;;29.10;17.05;;;10.60;99.90;;;9.68;100.00;96823.44;5089824;28;20402;-76
2022/09/30 08:35:11;;;;;;;26.25;17.35;;;10.60;99.90;;;9.78;100.00;96827.16;5090022;28;20414;-75
2022/09/30 08:37:36;;;;;;;29.13;17.80;;;10.70;99.90;;;9.83;100.00;96830.63;5092644;28;20408;-75
2022/09/30 08:40:03;;;;;;;28.40;17.52;;;10.70;99.90;;;9.90;100.00;96823.25;5094362;28;20413;-75
2022/09/30 08:42:54;;;;;;;28.40;17.00;;;10.80;99.90;;;9.93;100.00;96825.34;5094476;28;20398;-75
2022/09/30 08:45:34;;;;;;;27.27;17.05;;;10.80;99.90;;;10.01;100.00;96824.03;5094862;28;20451;-75
2022/09/30 08:48:14;;;;;;;24.73;15.82;;;10.90;99.90;;;10.10;100.00;96827.78;5094836;28;20409;-75
2022/09/30 08:50:59;;;;;;;27.92;16.60;;;11.00;99.90;;;10.25;100.00;96829.69;5094648;28;20775;-75
2022/09/30 08:53:30;;;;;;;22.08;14.82;;;11.10;99.90;;;10.38;100.00;96829.97;5094528;28;20895;-75
2022/09/30 08:56:01;;;;;;;24.15;14.98;;;11.20;99.90;;;10.48;100.00;96834.47;5095003;28;20839;-75
2022/09/30 08:58:32;;;;;;;23.00;14.90;;;11.30;99.90;;;10.56;100.00;96827.88;5094674;28;20390;-75
2022/09/30 09:01:05;;;;;;;21.42;14.48;;;11.40;99.90;;;10.65;100.00;96827.09;5094556;28;20382;-75
2022/09/30 09:03:33;;;;;;;21.27;14.63;;;11.50;99.90;;;10.78;100.00;96831.03;5094221;28;20859;-75
2022/09/30 09:06:15;;;;;;;25.23;14.93;;;11.60;99.90;;;10.91;100.00;96835.00;5094760;28;20401;-76
2022/09/30 09:09:02;;;;;;;22.08;13.95;;;11.80;99.90;;;11.01;100.00;96835.00;5094353;28;20455;-75
2022/09/30 09:11:46;;;;;;;20.45;14.25;;;11.90;99.90;;;11.08;100.00;96835.53;5094005;28;20467;-76
2022/09/30 09:14:30;;;;;;;23.08;15.55;;;11.90;99.90;;;11.06;100.00;96833.13;5083041;28;20403;-76
2022/09/30 09:17:09;;;;;;;20.42;14.40;;;11.90;99.90;;;11.17;100.00;96834.72;5086578;28;20871;-75
2022/09/30 09:19:40;;;;;;;20.90;14.57;;;12.00;99.90;;;11.13;100.00;96838.94;5093684;28;20488;-75
2022/09/30 09:22:08;;;;;;;18.27;13.23;;;12.00;99.90;;;11.13;100.00;96830.19;5092658;28;20390;-75
2022/09/30 09:24:40;;;;;;;19.88;13.50;;;12.00;99.90;;;11.09;100.00;96832.59;5074623;28;20405;-75
2022/09/30 09:27:19;;;;;;;19.60;13.77;;;12.00;99.90;;;11.09;100.00;96835.25;5093578;28;20436;-75
2022/09/30 09:30:00;;;;;;;23.70;15.27;;;11.90;99.90;;;11.09;100.00;96831.81;5075445;28;20438;-75
2022/09/30 09:32:28;;;;;;;23.80;15.70;;;12.00;99.90;;;11.14;100.00;96832.59;5093312;28;20980;-75
2022/09/30 09:35:00;;;;;;;25.75;15.23;;;12.00;99.90;;;11.16;100.00;96837.63;5093182;28;20406;-75
2022/09/30 09:40:38;;;;;;;20.40;14.40;;;12.10;99.90;;;11.40;100.00;96843.16;5093285;28;20461;-75
2022/09/30 09:43:18;;;;;;;21.90;14.97;;;12.20;99.90;;;11.57;100.00;96843.63;5092770;28;20391;-76
2022/09/30 09:45:55;;;;;;;22.75;15.10;;;12.30;99.90;;;11.76;100.00;96854.44;5093750;28;20394;-75
2022/09/30 09:48:21;;;;;;;24.70;14.88;;;12.60;99.90;;;11.90;100.00;96843.00;5074434;28;20887;-75
2022/09/30 09:50:59;;;;;;;21.50;14.97;;;12.70;99.90;;;12.11;100.00;96850.84;5093042;28;20410;-76
2022/09/30 09:53:47;;;;;;;23.95;15.27;;;12.90;99.90;;;12.16;100.00;96853.50;5092533;28;20394;-76
2022/09/30 09:56:17;;;;;;;21.52;14.32;;;13.00;99.90;;;12.11;100.00;96848.97;5092988;28;20496;-75
2022/09/30 09:59:08;;;;;;;19.63;13.07;;;13.00;99.90;;;12.23;100.00;96852.13;5092865;28;20402;-75
2022/09/30 10:01:38;;;;;;;21.60;13.88;;;13.10;99.90;;;12.25;100.00;96843.88;5092738;28;20436;-76
2022/09/30 10:04:18;;;;;;;23.70;13.35;;;13.10;99.90;;;12.23;100.00;96853.97;5074007;28;20810;-76
2022/09/30 10:06:49;;;;;;;17.42;12.52;;;13.10;99.90;;;12.21;100.00;96856.91;5092708;28;20394;-76
2022/09/30 10:09:24;;;;;;;13.70;9.30;;;13.00;99.90;;;12.18;100.00;96860.09;5078578;28;20409;-76
2022/09/30 10:11:51;;;;;;;9.00;5.75;;;13.00;99.90;;;12.16;100.00;96854.28;5066873;28;20414;-75
2022/09/30 10:14:20;;;;;;;10.38;5.40;;;12.90;99.90;;;12.21;100.00;96861.41;5087315;22;20404;-72
2022/09/30 10:16:48;;;;;;;6.82;4.20;;;13.00;99.90;;;12.28;100.00;96860.03;5084621;28;20847;-74
2022/09/30 10:19:21;;;;;;;7.28;5.07;;;13.10;99.90;;;12.37;100.00;96861.06;5082225;28;20414;-74
2022/09/30 10:21:48;;;;;;;7.57;4.53;;;13.10;99.90;;;12.52;100.00;96862.03;5086247;28;20406;-74
2022/09/30 10:24:28;;;;;;;10.45;4.80;;;13.30;99.90;;;12.59;100.00;96859.84;5091108;28;20507;-74
2022/09/30 10:26:54;;;;;;;7.00;4.88;;;13.40;99.90;;;12.72;100.00;96864.53;5092138;28;20406;-74
2022/09/30 10:29:31;;;;;;;8.65;5.80;;;13.50;99.90;;;12.71;100.00;96865.59;5091855;28;20417;-74
2022/09/30 10:32:00;;;;;;;11.75;5.55;;;13.50;99.90;;;12.69;100.00;96868.53;5076292;28;20415;-75